sensor_id;sensor_type;location;lat;lon;timestamp;pressure;altitude;pressure_sealevel;temperature;humidity
72086;BME280;64750;52.134;5.424;2023-08-31T00:00:49;100957.81;;;13.69;81.32
72086;BME280;64750;52.134;5.424;2023-08-31T00:03:19;100953.38;;;13.69;81.42
72086;BME280;64750;52.134;5.424;2023-08-31T00:05:46;100953.38;;;13.69;81.75
72086;BME280;64750;52.134;5.424;2023-08-31T00:08:13;100949.06;;;13.68;81.68
72086;BME280;64750;52.134;5.424;2023-08-31T00:10:40;100952.31;;;13.72;81.63
72086;BME280;64750;52.134;5.424;2023-08-31T00:13:06;100958.69;;;13.69;81.57
72086;BME280;64750;52.134;5.424;2023-08-31T00:15:34;100953.38;;;13.69;81.79
72086;BME280;64750;52.134;5.424;2023-08-31T00:18:03;100949.81;;;13.70;81.81
72086;BME280;64750;52.134;5.424;2023-08-31T00:20:30;100944.53;;;13.70;81.96
72086;BME280;64750;52.134;5.424;2023-08-31T00:22:57;100940.91;;;13.71;81.93
72086;BME280;64750;52.134;5.424;2023-08-31T00:25:24;100951.69;;;13.68;82.20
72086;BME280;64750;52.134;5.424;2023-08-31T00:27:51;100943.88;;;13.67;82.15
72086;BME280;64750;52.134;5.424;2023-08-31T00:30:20;100945.34;;;13.71;82.40
72086;BME280;64750;52.134;5.424;2023-08-31T00:32:46;100949.16;;;13.67;82.42
72086;BME280;64750;52.134;5.424;2023-08-31T00:35:17;100944.72;;;13.67;82.42
72086;BME280;64750;52.134;5.424;2023-08-31T00:37:43;100949.81;;;13.70;82.57
72086;BME280;64750;52.134;5.424;2023-08-31T00:40:10;100953.38;;;13.69;82.75
72086;BME280;64750;52.134;5.424;2023-08-31T00:42:40;100954.34;;;13.68;82.65
72086;BME280;64750;52.134;5.424;2023-08-31T00:45:07;100956.97;;;13.68;83.06
72086;BME280;64750;52.134;5.424;2023-08-31T00:47:33;100951.19;;;13.63;83.03
72086;BME280;64750;52.134;5.424;2023-08-31T00:50:00;100952.00;;;13.64;83.35
72086;BME280;64750;52.134;5.424;2023-08-31T00:52:27;100948.31;;;13.66;83.50
72086;BME280;64750;52.134;5.424;2023-08-31T00:54:54;100946.41;;;13.68;83.44
72086;BME280;64750;52.134;5.424;2023-08-31T00:57:20;100948.09;;;13.69;83.48
72086;BME280;64750;52.134;5.424;2023-08-31T00:59:47;100942.81;;;13.69;83.67
72086;BME280;64750;52.134;5.424;2023-08-31T01:02:21;100944.53;;;13.70;83.74
72086;BME280;64750;52.134;5.424;2023-08-31T01:05:08;100947.25;;;13.69;83.85
72086;BME280;64750;52.134;5.424;2023-08-31T01:07:48;100944.59;;;13.69;83.95
72086;BME280;64750;52.134;5.424;2023-08-31T01:10:32;100945.47;;;13.69;83.93
72086;BME280;64750;52.134;5.424;2023-08-31T01:13:10;100946.28;;;13.70;83.98
72086;BME280;64750;52.134;5.424;2023-08-31T01:15:41;100948.94;;;13.70;83.89
72086;BME280;64750;52.134;5.424;2023-08-31T01:18:11;100952.53;;;13.69;84.03
72086;BME280;64750;52.134;5.424;2023-08-31T01:20:57;100946.66;;;13.65;84.41
72086;BME280;64750;52.134;5.424;2023-08-31T01:26:02;100950.25;;;13.64;84.42
72086;BME280;64750;52.134;5.424;2023-08-31T01:28:28;100951.94;;;13.65;84.25
72086;BME280;64750;52.134;5.424;2023-08-31T01:30:55;100944.97;;;13.64;84.33
72086;BME280;64750;52.134;5.424;2023-08-31T01:33:21;100947.59;;;13.64;84.43
72086;BME280;64750;52.134;5.424;2023-08-31T01:35:50;100945.66;;;13.66;84.25
72086;BME280;64750;52.134;5.424;2023-08-31T01:38:25;100949.06;;;13.68;84.23
72086;BME280;64750;52.134;5.424;2023-08-31T01:41:14;100944.84;;;13.66;84.50
72086;BME280;64750;52.134;5.424;2023-08-31T01:43:44;100948.09;;;13.69;84.37
72086;BME280;64750;52.134;5.424;2023-08-31T01:46:13;100946.53;;;13.67;84.37
72086;BME280;64750;52.134;5.424;2023-08-31T01:48:40;100960.56;;;13.67;84.69
72086;BME280;64750;52.134;5.424;2023-08-31T01:51:08;100982.34;;;13.58;84.98
72086;BME280;64750;52.134;5.424;2023-08-31T01:53:35;100984.59;;;13.51;85.37
72086;BME280;64750;52.134;5.424;2023-08-31T01:56:02;100982.25;;;13.47;85.49
72086;BME280;64750;52.134;5.424;2023-08-31T01:58:28;100987.44;;;13.48;85.55
72086;BME280;64750;52.134;5.424;2023-08-31T02:00:55;100989.97;;;13.50;85.84
72086;BME280;64750;52.134;5.424;2023-08-31T02:03:23;100982.91;;;13.50;86.08
72086;BME280;64750;52.134;5.424;2023-08-31T02:05:50;100979.63;;;13.47;86.21
72086;BME280;64750;52.134;5.424;2023-08-31T02:08:16;100973.28;;;13.49;86.01
72086;BME280;64750;52.134;5.424;2023-08-31T02:10:46;100969.47;;;13.53;86.19
72086;BME280;64750;52.134;5.424;2023-08-31T02:13:14;100970.34;;;13.54;86.16
72086;BME280;64750;52.134;5.424;2023-08-31T02:15:40;100980.66;;;13.57;86.29
72086;BME280;64750;52.134;5.424;2023-08-31T02:18:08;100981.06;;;13.64;86.47
72086;BME280;64750;52.134;5.424;2023-08-31T02:20:34;100988.91;;;13.65;86.43
72086;BME280;64750;52.134;5.424;2023-08-31T02:23:01;100981.28;;;13.60;86.17
72086;BME280;64750;52.134;5.424;2023-08-31T02:25:27;100979.28;;;13.64;86.19
72086;BME280;64750;52.134;5.424;2023-08-31T02:27:56;100981.50;;;13.70;86.17
72086;BME280;64750;52.134;5.424;2023-08-31T02:30:23;100980.13;;;13.65;86.26
72086;BME280;64750;52.134;5.424;2023-08-31T02:32:49;100978.34;;;13.65;86.71
72086;BME280;64750;52.134;5.424;2023-08-31T02:35:16;100974.53;;;13.69;86.83
72086;BME280;64750;52.134;5.424;2023-08-31T02:37:42;100984.84;;;13.72;86.70
72086;BME280;64750;52.134;5.424;2023-08-31T02:40:09;100976.81;;;13.74;86.67
72086;BME280;64750;52.134;5.424;2023-08-31T02:42:36;100975.75;;;13.76;87.00
72086;BME280;64750;52.134;5.424;2023-08-31T02:45:03;100977.56;;;13.76;86.86
72086;BME280;64750;52.134;5.424;2023-08-31T02:47:30;100977.88;;;13.71;86.78
72086;BME280;64750;52.134;5.424;2023-08-31T02:49:57;100975.25;;;13.71;86.88
72086;BME280;64750;52.134;5.424;2023-08-31T02:52:23;100970.69;;;13.73;86.84
72086;BME280;64750;52.134;5.424;2023-08-31T02:54:50;100975.75;;;13.76;86.92
72086;BME280;64750;52.134;5.424;2023-08-31T02:57:16;100969.63;;;13.76;86.76
72086;BME280;64750;52.134;5.424;2023-08-31T02:59:49;100965.19;;;13.76;86.73
72086;BME280;64750;52.134;5.424;2023-08-31T03:02:16;100957.25;;;13.76;86.57
72086;BME280;64750;52.134;5.424;2023-08-31T03:04:43;100964.34;;;13.76;86.38
72086;BME280;64750;52.134;5.424;2023-08-31T03:07:09;100966.88;;;13.77;86.64
72086;BME280;64750;52.134;5.424;2023-08-31T03:09:40;100969.53;;;13.77;86.80
72086;BME280;64750;52.134;5.424;2023-08-31T03:12:06;100982.34;;;13.71;86.60
72086;BME280;64750;52.134;5.424;2023-08-31T03:14:33;100967.78;;;13.65;87.20
72086;BME280;64750;52.134;5.424;2023-08-31T03:16:59;100965.84;;;13.67;87.60
72086;BME280;64750;52.134;5.424;2023-08-31T03:19:26;100967.31;;;13.71;87.74
72086;BME280;64750;52.134;5.424;2023-08-31T03:21:52;100972.59;;;13.71;87.95
72086;BME280;64750;52.134;5.424;2023-08-31T03:24:19;100974.72;;;13.66;87.83
72086;BME280;64750;52.134;5.424;2023-08-31T03:26:45;100971.25;;;13.66;87.89
72086;BME280;64750;52.134;5.424;2023-08-31T03:29:12;100974.53;;;13.69;88.17
72086;BME280;64750;52.134;5.424;2023-08-31T03:31:38;100977.03;;;13.71;87.97
72086;BME280;64750;52.134;5.424;2023-08-31T03:34:05;100969.13;;;13.71;88.00
72086;BME280;64750;52.134;5.424;2023-08-31T03:36:31;100964.59;;;13.73;87.88
72086;BME280;64750;52.134;5.424;2023-08-31T03:39:01;100965.41;;;13.73;87.75
72086;BME280;64750;52.134;5.424;2023-08-31T03:41:27;100968.06;;;13.73;87.75
72086;BME280;64750;52.134;5.424;2023-08-31T03:43:53;100967.53;;;13.68;87.56
72086;BME280;64750;52.134;5.424;2023-08-31T03:46:20;100963.31;;;13.66;87.53
72086;BME280;64750;52.134;5.424;2023-08-31T03:48:46;100980.97;;;13.65;87.20
72086;BME280;64750;52.134;5.424;2023-08-31T03:51:13;100999.25;;;13.55;87.46
72086;BME280;64750;52.134;5.424;2023-08-31T03:53:40;100997.78;;;13.51;87.89
72086;BME280;64750;52.134;5.424;2023-08-31T03:56:07;100988.91;;;13.52;88.19
72086;BME280;64750;52.134;5.424;2023-08-31T03:58:33;100992.16;;;13.56;88.34
72086;BME280;64750;52.134;5.424;2023-08-31T04:01:00;100987.13;;;13.53;87.99
72086;BME280;64750;52.134;5.424;2023-08-31T04:03:26;100984.47;;;13.53;88.21
72086;BME280;64750;52.134;5.424;2023-08-31T04:05:56;100982.56;;;13.55;88.32
72086;BME280;64750;52.134;5.424;2023-08-31T04:08:22;100992.50;;;13.51;87.87
72086;BME280;64750;52.134;5.424;2023-08-31T04:10:49;100990.19;;;13.47;87.79
72086;BME280;64750;52.134;5.424;2023-08-31T04:13:15;100999.81;;;13.48;88.28
72086;BME280;64750;52.134;5.424;2023-08-31T04:15:43;100994.41;;;13.49;88.44
72086;BME280;64750;52.134;5.424;2023-08-31T04:18:09;100988.06;;;13.52;88.62
72086;BME280;64750;52.134;5.424;2023-08-31T04:20:36;100988.81;;;13.54;88.37
72086;BME280;64750;52.134;5.424;2023-08-31T04:23:03;100985.19;;;13.55;88.33
72086;BME280;64750;52.134;5.424;2023-08-31T04:25:29;100990.47;;;13.55;88.34
72086;BME280;64750;52.134;5.424;2023-08-31T04:27:59;100997.44;;;13.56;88.46
72086;BME280;64750;52.134;5.424;2023-08-31T04:30:26;100991.34;;;13.55;88.03
72086;BME280;64750;52.134;5.424;2023-08-31T04:32:52;100991.47;;;13.54;88.51
72086;BME280;64750;52.134;5.424;2023-08-31T04:35:22;100997.56;;;13.54;88.50
72086;BME280;64750;52.134;5.424;2023-08-31T04:37:48;101012.59;;;13.54;88.67
72086;BME280;64750;52.134;5.424;2023-08-31T04:40:15;101008.88;;;13.56;88.62
72086;BME280;64750;52.134;5.424;2023-08-31T04:42:42;101011.41;;;13.58;88.55
72086;BME280;64750;52.134;5.424;2023-08-31T04:45:09;101012.34;;;13.57;88.65
72086;BME280;64750;52.134;5.424;2023-08-31T04:47:37;101020.38;;;13.55;88.56
72086;BME280;64750;52.134;5.424;2023-08-31T04:50:04;101019.31;;;13.58;88.40
72086;BME280;64750;52.134;5.424;2023-08-31T04:52:32;101018.47;;;13.57;88.36
72086;BME280;64750;52.134;5.424;2023-08-31T04:55:00;101033.47;;;13.57;88.38
72086;BME280;64750;52.134;5.424;2023-08-31T04:57:27;101028.44;;;13.54;88.59
72086;BME280;64750;52.134;5.424;2023-08-31T04:59:54;101038.13;;;13.53;88.87
72086;BME280;64750;52.134;5.424;2023-08-31T05:02:21;101037.06;;;13.56;88.96
72086;BME280;64750;52.134;5.424;2023-08-31T05:04:47;101042.34;;;13.56;88.92
72086;BME280;64750;52.134;5.424;2023-08-31T05:07:14;101042.47;;;13.54;88.71
72086;BME280;64750;52.134;5.424;2023-08-31T05:09:40;101043.53;;;13.52;88.74
72086;BME280;64750;52.134;5.424;2023-08-31T05:12:07;101049.22;;;13.45;88.90
72086;BME280;64750;52.134;5.424;2023-08-31T05:14:36;101053.56;;;13.47;89.16
72086;BME280;64750;52.134;5.424;2023-08-31T05:17:04;101050.16;;;13.44;88.89
72086;BME280;64750;52.134;5.424;2023-08-31T05:19:34;101053.56;;;13.47;89.23
72086;BME280;64750;52.134;5.424;2023-08-31T05:22:00;101051.56;;;13.50;89.14
72086;BME280;64750;52.134;5.424;2023-08-31T05:24:27;101055.78;;;13.53;89.27
72086;BME280;64750;52.134;5.424;2023-08-31T05:26:53;101056.50;;;13.55;89.39
72086;BME280;64750;52.134;5.424;2023-08-31T05:29:20;101058.94;;;13.58;89.39
72086;BME280;64750;52.134;5.424;2023-08-31T05:31:46;101063.28;;;13.59;89.56
72086;BME280;64750;52.134;5.424;2023-08-31T05:34:16;101060.63;;;13.59;89.59
72086;BME280;64750;52.134;5.424;2023-08-31T05:36:44;101061.34;;;13.61;89.58
72086;BME280;64750;52.134;5.424;2023-08-31T05:39:11;101056.81;;;13.63;89.61
72086;BME280;64750;52.134;5.424;2023-08-31T05:41:40;101058.41;;;13.66;89.68
72086;BME280;64750;52.134;5.424;2023-08-31T05:44:07;101069.59;;;13.69;89.72
72086;BME280;64750;52.134;5.424;2023-08-31T05:46:34;101071.31;;;13.70;89.75
72086;BME280;64750;52.134;5.424;2023-08-31T05:49:00;101066.97;;;13.69;89.73
72086;BME280;64750;52.134;5.424;2023-08-31T05:51:27;101075.72;;;13.70;89.80
72086;BME280;64750;52.134;5.424;2023-08-31T05:53:53;101069.59;;;13.69;89.94
72086;BME280;64750;52.134;5.424;2023-08-31T05:56:20;101071.38;;;13.69;90.09
72086;BME280;64750;52.134;5.424;2023-08-31T05:58:46;101082.28;;;13.64;90.14
72086;BME280;64750;52.134;5.424;2023-08-31T06:01:13;101087.34;;;13.67;90.07
72086;BME280;64750;52.134;5.424;2023-08-31T06:03:40;101096.03;;;13.69;90.25
72086;BME280;64750;52.134;5.424;2023-08-31T06:06:06;101109.34;;;13.68;90.22
72086;BME280;64750;52.134;5.424;2023-08-31T06:08:33;101102.38;;;13.67;90.37
72086;BME280;64750;52.134;5.424;2023-08-31T06:10:59;101108.91;;;13.61;90.28
72086;BME280;64750;52.134;5.424;2023-08-31T06:13:26;101098.44;;;13.59;90.45
72086;BME280;64750;52.134;5.424;2023-08-31T06:15:54;101102.78;;;13.60;90.70
72086;BME280;64750;52.134;5.424;2023-08-31T06:18:22;101092.09;;;13.62;90.64
72086;BME280;64750;52.134;5.424;2023-08-31T06:20:49;101099.19;;;13.61;90.52
72086;BME280;64750;52.134;5.424;2023-08-31T06:23:15;101104.56;;;13.60;90.58
72086;BME280;64750;52.134;5.424;2023-08-31T06:25:42;101111.44;;;13.62;90.75
72086;BME280;64750;52.134;5.424;2023-08-31T06:28:11;101102.56;;;13.64;90.54
72086;BME280;64750;52.134;5.424;2023-08-31T06:30:38;101103.19;;;13.67;90.46
72086;BME280;64750;52.134;5.424;2023-08-31T06:33:05;101108.28;;;13.70;90.53
72086;BME280;64750;52.134;5.424;2023-08-31T06:35:32;101101.31;;;13.69;90.62
72086;BME280;64750;52.134;5.424;2023-08-31T06:37:58;101099.38;;;13.71;90.48
72086;BME280;64750;52.134;5.424;2023-08-31T06:40:25;101099.50;;;13.70;90.42
72086;BME280;64750;52.134;5.424;2023-08-31T06:42:52;101094.31;;;13.68;90.62
72086;BME280;64750;52.134;5.424;2023-08-31T06:45:18;101099.84;;;13.65;90.67
72086;BME280;64750;52.134;5.424;2023-08-31T06:47:45;101102.56;;;13.64;90.53
72086;BME280;64750;52.134;5.424;2023-08-31T06:50:11;101103.63;;;13.61;90.66
72086;BME280;64750;52.134;5.424;2023-08-31T06:52:38;101101.91;;;13.60;90.52
72086;BME280;64750;52.134;5.424;2023-08-31T06:55:04;101104.25;;;13.65;90.74
72086;BME280;64750;52.134;5.424;2023-08-31T06:57:32;101110.19;;;13.68;90.62
72086;BME280;64750;52.134;5.424;2023-08-31T06:59:59;101113.56;;;13.70;90.76
72086;BME280;64750;52.134;5.424;2023-08-31T07:02:26;101116.94;;;13.72;90.73
72086;BME280;64750;52.134;5.424;2023-08-31T07:04:53;101120.31;;;13.74;90.67
72086;BME280;64750;52.134;5.424;2023-08-31T07:07:19;101121.16;;;13.75;90.62
72086;BME280;64750;52.134;5.424;2023-08-31T07:09:46;101125.38;;;13.77;90.96
72086;BME280;64750;52.134;5.424;2023-08-31T07:12:14;101130.47;;;13.81;91.10
72086;BME280;64750;52.134;5.424;2023-08-31T07:14:40;101135.53;;;13.84;91.21
72086;BME280;64750;52.134;5.424;2023-08-31T07:17:07;101132.13;;;13.82;91.11
72086;BME280;64750;52.134;5.424;2023-08-31T07:19:37;101130.25;;;13.84;91.31
72086;BME280;64750;52.134;5.424;2023-08-31T07:22:04;101135.31;;;13.87;91.59
72086;BME280;64750;52.134;5.424;2023-08-31T07:24:32;101137.00;;;13.88;91.69
72086;BME280;64750;52.134;5.424;2023-08-31T07:27:02;101144.81;;;13.89;91.75
72086;BME280;64750;52.134;5.424;2023-08-31T07:29:28;101143.75;;;13.92;92.09
72086;BME280;64750;52.134;5.424;2023-08-31T07:31:55;101149.91;;;13.92;91.96
72086;BME280;64750;52.134;5.424;2023-08-31T07:34:21;101156.97;;;13.92;91.90
72086;BME280;64750;52.134;5.424;2023-08-31T07:36:48;101149.03;;;13.92;92.00
72086;BME280;64750;52.134;5.424;2023-08-31T07:39:15;101153.38;;;13.93;91.89
72086;BME280;64750;52.134;5.424;2023-08-31T07:41:44;101142.63;;;13.96;91.96
72086;BME280;64750;52.134;5.424;2023-08-31T07:44:10;101150.84;;;14.04;92.11
72086;BME280;64750;52.134;5.424;2023-08-31T07:46:37;101161.28;;;14.06;92.35
72086;BME280;64750;52.134;5.424;2023-08-31T07:49:04;101164.81;;;14.06;92.84
72086;BME280;64750;52.134;5.424;2023-08-31T07:51:30;101163.09;;;14.05;92.75
72086;BME280;64750;52.134;5.424;2023-08-31T07:53:57;101167.44;;;14.06;92.67
72086;BME280;64750;52.134;5.424;2023-08-31T07:56:23;101162.16;;;14.06;92.82
72086;BME280;64750;52.134;5.424;2023-08-31T07:58:50;101166.47;;;14.07;92.88
72086;BME280;64750;52.134;5.424;2023-08-31T08:01:16;101167.22;;;14.09;92.82
72086;BME280;64750;52.134;5.424;2023-08-31T08:03:44;101170.63;;;14.11;92.99
72086;BME280;64750;52.134;5.424;2023-08-31T08:06:10;101175.91;;;14.11;92.96
72086;BME280;64750;52.134;5.424;2023-08-31T08:08:37;101171.44;;;14.12;93.11
72086;BME280;64750;52.134;5.424;2023-08-31T08:11:04;101183.59;;;14.15;93.40
72086;BME280;64750;52.134;5.424;2023-08-31T08:13:31;101173.03;;;14.15;93.59
72086;BME280;64750;52.134;5.424;2023-08-31T08:15:57;101176.31;;;14.18;93.37
72086;BME280;64750;52.134;5.424;2023-08-31T08:18:23;101181.38;;;14.21;93.53
72086;BME280;64750;52.134;5.424;2023-08-31T08:20:50;101188.03;;;14.27;93.72
72086;BME280;64750;52.134;5.424;2023-08-31T08:23:17;101183.47;;;14.29;93.77
72086;BME280;64750;52.134;5.424;2023-08-31T08:25:43;101192.28;;;14.30;93.85
72086;BME280;64750;52.134;5.424;2023-08-31T08:28:10;101193.00;;;14.32;93.70
72086;BME280;64750;52.134;5.424;2023-08-31T08:30:36;101193.84;;;14.32;93.63
72086;BME280;64750;52.134;5.424;2023-08-31T08:33:03;101197.31;;;14.33;93.53
72086;BME280;64750;52.134;5.424;2023-08-31T08:35:30;101203.47;;;14.33;93.64
72086;BME280;64750;52.134;5.424;2023-08-31T08:37:56;101194.69;;;14.33;93.88
72086;BME280;64750;52.134;5.424;2023-08-31T08:40:23;101204.94;;;14.37;93.92
72086;BME280;64750;52.134;5.424;2023-08-31T08:42:52;101197.72;;;14.39;93.91
72086;BME280;64750;52.134;5.424;2023-08-31T08:45:20;101198.47;;;14.41;94.24
72086;BME280;64750;52.134;5.424;2023-08-31T08:47:49;101198.25;;;14.44;94.19
72086;BME280;64750;52.134;5.424;2023-08-31T08:50:18;101199.84;;;14.47;94.29
72086;BME280;64750;52.134;5.424;2023-08-31T08:52:46;101202.28;;;14.50;94.07
72086;BME280;64750;52.134;5.424;2023-08-31T08:55:13;101201.63;;;14.59;94.48
72086;BME280;64750;52.134;5.424;2023-08-31T08:57:41;101206.06;;;14.72;95.07
72086;BME280;64750;52.134;5.424;2023-08-31T09:00:07;101206.84;;;14.85;95.69
72086;BME280;64750;52.134;5.424;2023-08-31T09:02:34;101212.09;;;14.98;95.41
72086;BME280;64750;52.134;5.424;2023-08-31T09:05:01;101205.16;;;14.97;94.84
72086;BME280;64750;52.134;5.424;2023-08-31T09:07:29;101203.00;;;15.02;94.51
72086;BME280;64750;52.134;5.424;2023-08-31T09:09:56;101198.81;;;15.11;94.31
72086;BME280;64750;52.134;5.424;2023-08-31T09:12:24;101196.09;;;15.24;95.35
72086;BME280;64750;52.134;5.424;2023-08-31T09:14:59;101206.84;;;15.34;95.10
72086;BME280;64750;52.134;5.424;2023-08-31T09:17:28;101196.38;;;15.32;94.04
72086;BME280;64750;52.134;5.424;2023-08-31T09:20:03;101206.25;;;15.30;93.63
72086;BME280;64750;52.134;5.424;2023-08-31T09:22:32;101200.22;;;15.28;93.23
72086;BME280;64750;52.134;5.424;2023-08-31T09:24:59;101193.25;;;15.27;92.49
72086;BME280;64750;52.134;5.424;2023-08-31T09:27:26;101195.66;;;15.30;92.25
72086;BME280;64750;52.134;5.424;2023-08-31T09:29:55;101200.81;;;15.32;92.37
72086;BME280;64750;52.134;5.424;2023-08-31T09:32:22;101196.50;;;15.31;92.94
72086;BME280;64750;52.134;5.424;2023-08-31T09:34:49;101200.31;;;15.26;92.41
72086;BME280;64750;52.134;5.424;2023-08-31T09:37:24;101203.09;;;15.25;93.05
72086;BME280;64750;52.134;5.424;2023-08-31T09:39:51;101213.06;;;15.21;92.64
72086;BME280;64750;52.134;5.424;2023-08-31T09:42:19;101212.22;;;15.21;93.26
72086;BME280;64750;52.134;5.424;2023-08-31T09:44:49;101214.75;;;15.22;93.31
72086;BME280;64750;52.134;5.424;2023-08-31T09:47:17;101212.59;;;15.28;93.38
72086;BME280;64750;52.134;5.424;2023-08-31T09:49:44;101210.84;;;15.39;93.44
72086;BME280;64750;52.134;5.424;2023-08-31T09:52:12;101207.16;;;15.53;92.87
72086;BME280;64750;52.134;5.424;2023-08-31T09:54:41;101200.19;;;15.64;92.48
72086;BME280;64750;52.134;5.424;2023-08-31T09:57:10;101193.84;;;15.78;92.32
72086;BME280;64750;52.134;5.424;2023-08-31T09:59:39;101193.19;;;15.87;91.57
72086;BME280;64750;52.134;5.424;2023-08-31T10:02:06;101201.66;;;15.92;90.83
72086;BME280;64750;52.134;5.424;2023-08-31T10:04:36;101201.97;;;15.87;87.52
72086;BME280;64750;52.134;5.424;2023-08-31T10:07:04;101209.94;;;15.87;88.34
72086;BME280;64750;52.134;5.424;2023-08-31T10:09:32;101202.09;;;15.86;86.54
72086;BME280;64750;52.134;5.424;2023-08-31T10:11:59;101196.56;;;15.89;86.12
72086;BME280;64750;52.134;5.424;2023-08-31T10:14:28;101197.19;;;15.93;86.70
72086;BME280;64750;52.134;5.424;2023-08-31T10:16:55;101195.25;;;15.95;81.08
72086;BME280;64750;52.134;5.424;2023-08-31T10:19:22;101199.09;;;16.02;82.78
72086;BME280;64750;52.134;5.424;2023-08-31T10:21:49;101193.31;;;16.08;82.17
72086;BME280;64750;52.134;5.424;2023-08-31T10:24:16;101187.69;;;16.13;81.44
72086;BME280;64750;52.134;5.424;2023-08-31T10:26:42;101201.03;;;16.22;80.80
72086;BME280;64750;52.134;5.424;2023-08-31T10:29:26;101199.97;;;16.25;79.04
72086;BME280;64750;52.134;5.424;2023-08-31T10:31:53;101201.53;;;16.28;76.10
72086;BME280;64750;52.134;5.424;2023-08-31T10:34:36;101196.81;;;16.31;75.68
72086;BME280;64750;52.134;5.424;2023-08-31T10:37:20;101196.09;;;16.40;77.78
72086;BME280;64750;52.134;5.424;2023-08-31T10:39:48;101194.78;;;16.46;75.47
72086;BME280;64750;52.134;5.424;2023-08-31T10:42:15;101193.69;;;16.49;77.52
72086;BME280;64750;52.134;5.424;2023-08-31T10:44:42;101192.34;;;16.54;74.94
72086;BME280;64750;52.134;5.424;2023-08-31T10:47:09;101197.41;;;16.58;75.41
72086;BME280;64750;52.134;5.424;2023-08-31T10:49:36;101194.16;;;16.65;72.41
72086;BME280;64750;52.134;5.424;2023-08-31T10:52:19;101205.94;;;16.72;71.44
72086;BME280;64750;52.134;5.424;2023-08-31T10:54:54;101200.75;;;16.71;70.76
72086;BME280;64750;52.134;5.424;2023-08-31T10:57:30;101199.81;;;16.72;70.47
72086;BME280;64750;52.134;5.424;2023-08-31T10:59:57;101197.75;;;16.76;71.19
72086;BME280;64750;52.134;5.424;2023-08-31T11:02:54;101197.00;;;16.85;70.80
72086;BME280;64750;52.134;5.424;2023-08-31T11:05:22;101198.81;;;16.84;66.36
72086;BME280;64750;52.134;5.424;2023-08-31T11:07:51;101195.44;;;16.82;67.50
72086;BME280;64750;52.134;5.424;2023-08-31T11:10:24;101196.25;;;16.83;66.09
72086;BME280;64750;52.134;5.424;2023-08-31T11:12:55;101205.09;;;16.83;65.91
72086;BME280;64750;52.134;5.424;2023-08-31T11:15:25;101200.38;;;16.87;66.39
72086;BME280;64750;52.134;5.424;2023-08-31T11:17:54;101198.22;;;16.92;66.95
72086;BME280;64750;52.134;5.424;2023-08-31T11:20:23;101222.13;;;16.92;62.59
72086;BME280;64750;52.134;5.424;2023-08-31T11:22:50;101206.88;;;16.94;63.75
72086;BME280;64750;52.134;5.424;2023-08-31T11:25:20;101215.59;;;16.96;62.28
72086;BME280;64750;52.134;5.424;2023-08-31T11:27:55;101212.19;;;16.94;63.01
72086;BME280;64750;52.134;5.424;2023-08-31T11:30:22;101203.41;;;16.94;62.47
72086;BME280;64750;52.134;5.424;2023-08-31T11:32:51;101213.63;;;16.98;64.20
72086;BME280;64750;52.134;5.424;2023-08-31T11:35:22;101209.66;;;17.04;62.75
72086;BME280;64750;52.134;5.424;2023-08-31T11:37:51;101206.88;;;17.05;62.24
72086;BME280;64750;52.134;5.424;2023-08-31T11:40:18;101206.59;;;17.09;63.54
72086;BME280;64750;52.134;5.424;2023-08-31T11:42:45;101215.03;;;17.14;60.20
72086;BME280;64750;52.134;5.424;2023-08-31T11:45:12;101226.38;;;17.16;60.12
72086;BME280;64750;52.134;5.424;2023-08-31T11:47:41;101214.78;;;17.17;60.84
72086;BME280;64750;52.134;5.424;2023-08-31T11:50:08;101205.88;;;17.18;62.27
72086;BME280;64750;52.134;5.424;2023-08-31T11:52:34;101208.84;;;17.25;62.03
72086;BME280;64750;52.134;5.424;2023-08-31T11:55:02;101205.09;;;17.27;62.36
72086;BME280;64750;52.134;5.424;2023-08-31T11:57:29;101204.59;;;17.33;62.44
72086;BME280;64750;52.134;5.424;2023-08-31T11:59:55;101208.81;;;17.36;62.17
72086;BME280;64750;52.134;5.424;2023-08-31T12:02:22;101202.72;;;17.45;61.47
72086;BME280;64750;52.134;5.424;2023-08-31T12:04:49;101201.81;;;17.56;60.53
72086;BME280;64750;52.134;5.424;2023-08-31T12:07:17;101210.25;;;17.61;58.67
72086;BME280;64750;52.134;5.424;2023-08-31T12:09:45;101206.00;;;17.59;59.33
72086;BME280;64750;52.134;5.424;2023-08-31T12:12:15;101205.91;;;17.60;59.87
72086;BME280;64750;52.134;5.424;2023-08-31T12:14:43;101199.50;;;17.63;58.20
72086;BME280;64750;52.134;5.424;2023-08-31T12:17:09;101207.34;;;17.64;58.84
72086;BME280;64750;52.134;5.424;2023-08-31T12:19:40;101193.06;;;17.65;56.26
72086;BME280;64750;52.134;5.424;2023-08-31T12:22:06;101209.84;;;17.66;59.58
72086;BME280;64750;52.134;5.424;2023-08-31T12:24:40;101206.09;;;17.68;57.51
72086;BME280;64750;52.134;5.424;2023-08-31T12:27:08;101213.09;;;17.69;59.59
72086;BME280;64750;52.134;5.424;2023-08-31T12:29:35;101210.06;;;17.74;59.19
72086;BME280;64750;52.134;5.424;2023-08-31T12:32:02;101208.38;;;17.73;58.30
72086;BME280;64750;52.134;5.424;2023-08-31T12:34:29;101221.06;;;17.69;58.95
72086;BME280;64750;52.134;5.424;2023-08-31T12:36:57;101223.28;;;17.64;57.76
72086;BME280;64750;52.134;5.424;2023-08-31T12:39:28;101220.16;;;17.59;58.73
72086;BME280;64750;52.134;5.424;2023-08-31T12:41:55;101227.41;;;17.57;59.12
72086;BME280;64750;52.134;5.424;2023-08-31T12:44:34;101211.91;;;17.62;58.14
72086;BME280;64750;52.134;5.424;2023-08-31T12:47:00;101213.47;;;17.65;58.66
72086;BME280;64750;52.134;5.424;2023-08-31T12:49:27;101220.25;;;17.69;57.75
72086;BME280;64750;52.134;5.424;2023-08-31T12:51:53;101225.00;;;17.75;58.09
72086;BME280;64750;52.134;5.424;2023-08-31T12:54:20;101228.69;;;17.74;58.20
72086;BME280;64750;52.134;5.424;2023-08-31T12:56:46;101219.97;;;17.72;59.16